createdAt,value
2023-10-07T00:00:07.800Z,8.10
2023-10-07T00:03:09.594Z,8.10
2023-10-07T00:06:12.813Z,5.32
2023-10-07T00:09:14.878Z,7.35
2023-10-07T00:12:17.099Z,6.05
2023-10-07T00:15:19.961Z,7.18
2023-10-07T00:18:21.780Z,6.75
2023-10-07T00:21:26.120Z,7.90
2023-10-07T00:24:28.612Z,6.55
2023-10-07T00:27:30.378Z,7.68
2023-10-07T00:30:32.419Z,8.65
2023-10-07T00:33:34.949Z,9.27
2023-10-07T00:36:38.550Z,6.53
2023-10-07T00:39:40.466Z,7.40
2023-10-07T00:42:42.644Z,6.47
2023-10-07T00:45:45.537Z,7.35
2023-10-07T00:48:47.799Z,7.93
2023-10-07T00:51:52.486Z,6.68
2023-10-07T00:54:56.074Z,6.57
2023-10-07T00:57:58.518Z,7.50
2023-10-07T01:01:01.119Z,7.85
2023-10-07T01:04:03.272Z,7.75
2023-10-07T01:07:06.536Z,6.35
2023-10-07T01:10:10.737Z,6.63
2023-10-07T01:13:12.831Z,8.13
2023-10-07T01:16:14.658Z,7.40
2023-10-07T01:19:17.548Z,7.03
2023-10-07T01:22:21.144Z,10.20
2023-10-07T01:25:23.507Z,8.60
2023-10-07T01:28:25.542Z,7.10
2023-10-07T01:31:27.450Z,7.63
2023-10-07T01:34:29.590Z,8.75
2023-10-07T01:37:32.888Z,9.32
2023-10-07T01:40:35.611Z,7.85
2023-10-07T01:43:37.411Z,8.55
2023-10-07T01:46:39.406Z,6.63
2023-10-07T01:49:41.270Z,7.65
2023-10-07T01:52:44.734Z,9.05
2023-10-07T01:55:47.015Z,8.93
2023-10-07T01:58:49.123Z,8.82
2023-10-07T02:01:51.374Z,7.05
2023-10-07T02:04:54.182Z,13.50
2023-10-07T02:07:57.546Z,9.00
2023-10-07T02:10:59.565Z,7.57
2023-10-07T02:14:01.834Z,9.05
2023-10-07T02:17:04.606Z,6.43
2023-10-07T02:20:10.344Z,7.07
2023-10-07T02:23:13.540Z,10.80
2023-10-07T02:26:17.374Z,7.68
2023-10-07T02:29:19.127Z,9.82
2023-10-07T02:32:22.873Z,8.23
2023-10-07T02:35:24.980Z,7.10
2023-10-07T02:38:28.346Z,7.40
2023-10-07T02:41:31.292Z,8.90
2023-10-07T02:44:33.477Z,7.63
2023-10-07T02:47:35.364Z,8.63
2023-10-07T02:50:43.111Z,8.43
2023-10-07T02:53:46.469Z,7.32
2023-10-07T02:56:50.744Z,7.57
2023-10-07T02:59:53.581Z,10.70
2023-10-07T03:02:55.933Z,11.35
2023-10-07T03:05:57.835Z,9.02
2023-10-07T03:09:01.141Z,10.10
2023-10-07T03:12:03.233Z,8.93
2023-10-07T03:15:05.931Z,8.75
2023-10-07T03:18:08.538Z,9.48
2023-10-07T03:21:10.461Z,8.63
2023-10-07T03:24:13.961Z,7.85
2023-10-07T03:27:15.940Z,8.43
2023-10-07T03:30:17.950Z,9.60
2023-10-07T03:33:20.501Z,8.98
2023-10-07T03:36:23.348Z,10.02
2023-10-07T03:39:26.894Z,10.77
2023-10-07T03:42:30.772Z,7.85
2023-10-07T03:45:32.501Z,8.38
2023-10-07T03:48:34.322Z,8.68
2023-10-07T03:51:36.441Z,9.82
2023-10-07T03:54:40.410Z,7.72
2023-10-07T03:57:42.474Z,8.13
2023-10-07T04:00:44.616Z,9.40
2023-10-07T04:03:47.685Z,9.73
2023-10-07T04:06:50.010Z,10.85
2023-10-07T04:09:53.219Z,13.82
2023-10-07T04:12:54.909Z,14.52
2023-10-07T04:15:56.618Z,14.38
2023-10-07T04:18:59.334Z,16.35
2023-10-07T04:22:01.064Z,13.07
2023-10-07T04:25:05.202Z,15.23
2023-10-07T04:28:06.969Z,17.17
2023-10-07T04:31:10.258Z,16.20
2023-10-07T04:34:15.107Z,14.15
2023-10-07T04:37:18.800Z,13.32
2023-10-07T04:40:23.367Z,15.65
2023-10-07T04:43:25.069Z,14.15
2023-10-07T04:46:27.187Z,12.15
2023-10-07T04:49:29.002Z,10.63
2023-10-07T04:52:32.685Z,11.52
2023-10-07T04:55:35.889Z,12.13
2023-10-07T04:58:37.953Z,19.08
2023-10-07T05:01:39.787Z,12.30
2023-10-07T05:04:41.733Z,15.30
2023-10-07T05:07:43.611Z,13.40
2023-10-07T05:10:46.980Z,12.52
2023-10-07T05:13:48.873Z,14.60
2023-10-07T05:16:50.880Z,13.35
2023-10-07T05:19:52.965Z,12.20
2023-10-07T05:22:55.165Z,13.38
2023-10-07T05:25:58.595Z,12.88
2023-10-07T05:29:00.939Z,13.18
2023-10-07T05:32:03.199Z,14.00
2023-10-07T05:35:08.189Z,12.88
2023-10-07T05:38:10.145Z,14.07
2023-10-07T05:41:13.665Z,13.65
2023-10-07T05:44:17.587Z,11.98
2023-10-07T05:47:19.455Z,11.35
2023-10-07T05:50:21.308Z,11.93
2023-10-07T05:53:23.095Z,11.90
2023-10-07T05:56:26.389Z,12.95
2023-10-07T05:59:28.176Z,14.15
2023-10-07T06:02:30.393Z,13.25
2023-10-07T06:05:33.528Z,14.40
2023-10-07T06:08:35.391Z,18.30
2023-10-07T06:11:40.011Z,18.05
2023-10-07T06:14:42.252Z,15.10
2023-10-07T06:17:44.105Z,11.70
2023-10-07T06:20:47.178Z,11.65
2023-10-07T06:23:49.117Z,11.50
2023-10-07T06:26:52.372Z,10.90
2023-10-07T06:29:54.157Z,10.90
2023-10-07T06:32:56.618Z,15.55
2023-10-07T06:35:59.321Z,13.40
2023-10-07T06:39:02.004Z,14.30
2023-10-07T06:42:05.342Z,12.85
2023-10-07T06:45:08.902Z,15.13
2023-10-07T06:48:10.922Z,12.48
2023-10-07T06:51:14.402Z,14.80
2023-10-07T06:54:16.239Z,13.90
2023-10-07T06:57:21.294Z,17.35
2023-10-07T07:00:23.981Z,14.70
2023-10-07T07:03:25.994Z,13.43
2023-10-07T07:06:27.984Z,10.20
2023-10-07T07:09:29.750Z,14.75
2023-10-07T07:12:33.430Z,12.20
2023-10-07T07:15:35.758Z,13.93
2023-10-07T07:18:37.886Z,9.80
2023-10-07T07:21:40.258Z,13.07
2023-10-07T07:24:41.982Z,11.82
2023-10-07T07:27:46.971Z,12.30
2023-10-07T07:30:48.891Z,11.40
2023-10-07T07:33:51.049Z,10.82
2023-10-07T07:36:54.609Z,9.65
2023-10-07T07:39:56.564Z,13.50
2023-10-07T07:43:00.550Z,9.10
2023-10-07T07:46:09.578Z,10.45
2023-10-07T07:49:14.785Z,14.68
2023-10-07T07:52:16.565Z,12.68
2023-10-07T07:55:23.758Z,13.48
2023-10-07T07:58:27.118Z,15.75
2023-10-07T08:01:29.331Z,10.48
2023-10-07T08:04:33.659Z,12.07
2023-10-07T08:07:36.203Z,12.75
2023-10-07T08:10:38.173Z,10.98
2023-10-07T08:13:43.073Z,10.77
2023-10-07T08:16:45.564Z,10.07
2023-10-07T08:19:49.555Z,10.35
2023-10-07T08:22:52.018Z,13.43
2023-10-07T08:25:56.369Z,11.60
2023-10-07T08:28:59.595Z,10.90
2023-10-07T08:32:02.354Z,12.77
2023-10-07T08:35:06.809Z,9.32
2023-10-07T08:38:08.822Z,11.20
2023-10-07T08:41:11.559Z,9.43
2023-10-07T08:44:15.217Z,15.82
2023-10-07T08:47:20.093Z,7.72
2023-10-07T08:50:26.302Z,8.32
2023-10-07T08:53:28.222Z,11.35
2023-10-07T08:56:34.410Z,9.25
2023-10-07T08:59:37.754Z,8.23
2023-10-07T09:02:39.517Z,7.05
2023-10-07T09:05:41.345Z,8.13
2023-10-07T09:08:44.976Z,8.27
2023-10-07T09:11:47.438Z,6.55
2023-10-07T09:14:51.969Z,8.55
2023-10-07T09:17:59.319Z,8.65
2023-10-07T09:21:02.032Z,7.88
2023-10-07T09:24:04.306Z,7.20
2023-10-07T09:27:07.363Z,6.35
2023-10-07T09:30:11.471Z,8.60
2023-10-07T09:33:14.682Z,7.18
2023-10-07T09:36:19.641Z,6.40
2023-10-07T09:39:23.192Z,8.27
2023-10-07T09:42:25.265Z,5.13
2023-10-07T09:45:32.446Z,8.45
2023-10-07T09:48:35.123Z,4.70
2023-10-07T09:51:37.092Z,5.18
2023-10-07T09:54:50.324Z,4.60
2023-10-07T09:58:11.718Z,5.32
2023-10-07T10:01:26.464Z,4.68
2023-10-07T10:04:53.271Z,4.85
2023-10-07T10:08:31.152Z,4.45
2023-10-07T10:11:32.958Z,6.55
2023-10-07T10:14:35.218Z,5.40
2023-10-07T10:17:42.070Z,5.05
2023-10-07T10:20:44.553Z,4.72
2023-10-07T10:23:49.863Z,4.63
2023-10-07T10:26:52.134Z,4.45
2023-10-07T10:29:55.737Z,4.78
2023-10-07T10:33:00.237Z,5.45
2023-10-07T10:36:06.523Z,6.93
2023-10-07T10:39:29.215Z,6.97
2023-10-07T10:42:41.054Z,6.50
2023-10-07T10:45:43.476Z,4.30
2023-10-07T10:48:51.055Z,7.60
2023-10-07T10:51:53.185Z,5.70
2023-10-07T10:54:54.940Z,9.82
2023-10-07T10:57:57.011Z,5.30
2023-10-07T11:00:58.906Z,6.53
2023-10-07T11:04:04.481Z,5.65
2023-10-07T11:07:06.629Z,7.15
2023-10-07T11:10:10.293Z,6.63
2023-10-07T11:13:13.088Z,6.47
2023-10-07T11:16:14.973Z,6.93
2023-10-07T11:19:19.724Z,5.47
2023-10-07T11:22:21.660Z,5.15
2023-10-07T11:25:27.826Z,4.85
2023-10-07T11:28:32.016Z,6.53
2023-10-07T11:31:34.305Z,5.28
2023-10-07T11:34:39.000Z,6.40
2023-10-07T11:37:48.914Z,6.28
2023-10-07T11:40:50.841Z,5.82
2023-10-07T11:43:52.682Z,6.05
2023-10-07T11:46:54.845Z,6.13
2023-10-07T11:49:58.292Z,7.30
2023-10-07T11:53:00.186Z,5.05
2023-10-07T11:56:03.949Z,5.68
2023-10-07T11:59:05.831Z,6.78
2023-10-07T12:02:08.248Z,5.82
2023-10-07T12:05:11.554Z,11.75
2023-10-07T12:08:14.112Z,5.88
2023-10-07T12:11:16.328Z,8.15
2023-10-07T12:14:24.170Z,5.50
2023-10-07T12:17:26.437Z,7.53
2023-10-07T12:20:33.648Z,8.07
2023-10-07T12:23:35.545Z,12.80
2023-10-07T12:26:37.388Z,7.35
2023-10-07T12:29:41.319Z,5.72
2023-10-07T12:32:43.257Z,6.28
2023-10-07T12:35:48.038Z,5.97
2023-10-07T12:38:49.953Z,7.05
2023-10-07T12:41:52.094Z,6.18
2023-10-07T12:44:56.967Z,7.03
2023-10-07T12:47:58.794Z,18.52
2023-10-07T12:51:04.426Z,23.05
2023-10-07T12:54:06.673Z,6.10
2023-10-07T12:57:10.582Z,25.88
2023-10-07T13:00:13.801Z,13.60
2023-10-07T13:03:16.016Z,12.00
2023-10-07T13:06:20.710Z,9.23
2023-10-07T13:09:22.569Z,17.30
2023-10-07T13:12:25.815Z,10.13
2023-10-07T13:15:28.623Z,6.40
2023-10-07T13:18:33.493Z,7.05
2023-10-07T13:21:36.674Z,6.35
2023-10-07T13:24:40.321Z,6.07
2023-10-07T13:27:42.345Z,7.45
2023-10-07T13:30:44.549Z,7.05
2023-10-07T13:33:48.154Z,7.68
2023-10-07T13:36:51.609Z,5.85
2023-10-07T13:39:54.983Z,7.18
2023-10-07T13:42:56.904Z,5.13
2023-10-07T13:45:59.427Z,10.30
2023-10-07T13:49:01.377Z,8.23
2023-10-07T13:52:04.802Z,9.00
2023-10-07T13:55:10.046Z,5.47
2023-10-07T13:58:12.789Z,7.22
2023-10-07T14:01:14.614Z,5.57
2023-10-07T14:04:18.714Z,6.88
2023-10-07T14:07:21.933Z,5.95
2023-10-07T14:10:24.118Z,6.18
2023-10-07T14:13:28.344Z,6.43
2023-10-07T14:16:30.234Z,5.70
2023-10-07T14:19:33.859Z,7.25
2023-10-07T14:22:37.047Z,8.70
2023-10-07T14:25:38.874Z,6.20
2023-10-07T14:28:45.498Z,6.15
2023-10-07T14:31:47.838Z,6.13
2023-10-07T14:34:49.949Z,7.03
2023-10-07T14:37:55.281Z,5.72
2023-10-07T14:40:57.213Z,6.20
2023-10-07T14:44:00.240Z,6.03
2023-10-07T14:47:05.109Z,5.95
2023-10-07T14:50:09.154Z,9.70
2023-10-07T14:53:13.548Z,5.00
2023-10-07T14:56:17.360Z,7.25
2023-10-07T14:59:22.237Z,8.40
2023-10-07T15:02:25.131Z,10.15
2023-10-07T15:05:27.501Z,9.48
2023-10-07T15:08:32.223Z,8.07
2023-10-07T15:11:34.030Z,9.73
2023-10-07T15:14:37.932Z,6.15
2023-10-07T15:17:39.797Z,7.68
2023-10-07T15:20:41.687Z,26.50
2023-10-07T15:23:46.129Z,9.48
2023-10-07T15:26:48.698Z,9.88
2023-10-07T15:29:53.329Z,11.23
2023-10-07T15:32:55.515Z,9.73
2023-10-07T15:35:57.352Z,5.90
2023-10-07T15:39:03.287Z,7.03
2023-10-07T15:42:05.519Z,8.18
2023-10-07T15:45:10.290Z,8.07
2023-10-07T15:48:12.662Z,6.95
2023-10-07T15:51:15.003Z,6.90
2023-10-07T15:54:18.285Z,9.07
2023-10-07T15:57:21.971Z,6.07
2023-10-07T16:00:24.611Z,9.57
2023-10-07T16:03:26.477Z,11.35
2023-10-07T16:06:28.710Z,6.53
2023-10-07T16:09:32.570Z,9.10
2023-10-07T16:12:34.979Z,6.90
2023-10-07T16:15:37.116Z,7.80
2023-10-07T16:18:41.312Z,6.32
2023-10-07T16:21:44.193Z,7.97
2023-10-07T16:24:47.771Z,6.85
2023-10-07T16:27:51.277Z,7.68
2023-10-07T16:30:53.309Z,6.13
2023-10-07T16:33:55.474Z,6.43
2023-10-07T16:36:57.479Z,9.57
2023-10-07T16:40:00.808Z,5.57
2023-10-07T16:43:03.069Z,7.40
2023-10-07T16:46:06.204Z,7.88
2023-10-07T16:49:08.429Z,6.22
2023-10-07T16:52:10.331Z,7.80
2023-10-07T16:55:16.873Z,6.93
2023-10-07T16:58:18.800Z,8.68
2023-10-07T17:01:21.303Z,9.45
2023-10-07T17:04:24.121Z,5.32
2023-10-07T17:07:27.089Z,8.93
2023-10-07T17:10:37.778Z,8.90
2023-10-07T17:13:41.835Z,6.78
2023-10-07T17:16:43.914Z,12.52
2023-10-07T17:19:51.845Z,6.72
2023-10-07T17:22:55.537Z,11.15
2023-10-07T17:26:01.449Z,5.70
2023-10-07T17:29:06.694Z,5.90
2023-10-07T17:32:11.118Z,7.18
2023-10-07T17:35:16.458Z,7.43
2023-10-07T17:38:25.194Z,6.47
2023-10-07T17:41:30.528Z,7.35
2023-10-07T17:44:34.877Z,5.60
2023-10-07T17:47:40.665Z,8.25
2023-10-07T17:50:45.546Z,8.88
2023-10-07T17:53:50.234Z,8.10
2023-10-07T17:56:55.787Z,7.57
2023-10-07T17:59:57.791Z,8.02
2023-10-07T18:03:00.685Z,9.57
2023-10-07T18:06:06.413Z,7.07
2023-10-07T18:09:18.759Z,9.68
2023-10-07T18:12:22.345Z,6.57
2023-10-07T18:15:24.407Z,6.13
2023-10-07T18:18:29.525Z,6.00
2023-10-07T18:21:31.313Z,7.82
2023-10-07T18:24:33.751Z,7.00
2023-10-07T18:27:39.255Z,7.13
2023-10-07T18:30:41.742Z,6.82
2023-10-07T18:33:44.038Z,8.52
2023-10-07T18:36:47.409Z,8.00
2023-10-07T18:39:51.393Z,5.97
2023-10-07T18:42:55.501Z,5.55
2023-10-07T18:45:57.936Z,7.78
2023-10-07T18:49:02.976Z,7.13
2023-10-07T18:52:06.189Z,7.13
2023-10-07T18:55:11.382Z,7.63
2023-10-07T18:58:15.768Z,6.78
2023-10-07T19:01:19.382Z,7.63
2023-10-07T19:04:23.054Z,10.98
2023-10-07T19:07:26.758Z,9.38
2023-10-07T19:10:29.912Z,7.05
2023-10-07T19:13:38.761Z,5.72
2023-10-07T19:16:42.738Z,6.13
2023-10-07T19:19:48.509Z,4.30
2023-10-07T19:22:52.589Z,6.18
2023-10-07T19:25:57.035Z,5.03
2023-10-07T19:29:03.400Z,5.43
2023-10-07T19:32:07.369Z,4.43
2023-10-07T19:35:11.072Z,5.65
2023-10-07T19:38:13.868Z,4.90
2023-10-07T19:41:16.166Z,6.63
2023-10-07T19:44:20.186Z,4.82
2023-10-07T19:47:22.328Z,6.18
2023-10-07T19:50:25.861Z,5.60
2023-10-07T19:53:27.725Z,5.53
2023-10-07T19:56:31.867Z,5.07
2023-10-07T19:59:37.504Z,5.22
2023-10-07T20:02:39.682Z,4.00
2023-10-07T20:05:43.069Z,4.40
2023-10-07T20:08:45.384Z,3.67
2023-10-07T20:11:48.710Z,6.05
2023-10-07T20:14:54.232Z,5.07
2023-10-07T20:17:56.379Z,5.18
2023-10-07T20:20:59.154Z,4.90
2023-10-07T20:24:01.288Z,4.55
2023-10-07T20:27:04.472Z,7.20
2023-10-07T20:30:08.626Z,5.03
2023-10-07T20:33:10.540Z,7.10
2023-10-07T20:36:13.113Z,4.50
2023-10-07T20:39:14.984Z,4.65
2023-10-07T20:42:16.902Z,5.60
2023-10-07T20:45:20.884Z,4.63
2023-10-07T20:48:24.452Z,6.80
2023-10-07T20:51:27.672Z,6.60
2023-10-07T20:54:30.658Z,5.30
2023-10-07T20:57:32.645Z,6.25
2023-10-07T21:00:41.469Z,5.30
2023-10-07T21:03:43.545Z,3.88
2023-10-07T21:06:46.159Z,4.50
2023-10-07T21:09:48.017Z,5.57
2023-10-07T21:12:50.138Z,5.28
2023-10-07T21:15:55.741Z,5.45
2023-10-07T21:18:57.515Z,5.78
2023-10-07T21:21:59.224Z,4.60
2023-10-07T21:25:02.491Z,5.82
2023-10-07T21:28:07.520Z,6.18
2023-10-07T21:31:11.344Z,6.10
2023-10-07T21:34:13.457Z,9.50
2023-10-07T21:37:15.507Z,5.10
2023-10-07T21:40:17.241Z,5.32
2023-10-07T21:43:19.020Z,5.72
2023-10-07T21:46:22.832Z,3.65
2023-10-07T21:49:26.293Z,5.97
2023-10-07T21:52:31.485Z,5.93
2023-10-07T21:55:34.083Z,5.80
2023-10-07T21:58:40.099Z,4.97
2023-10-07T22:01:43.262Z,6.53
2023-10-07T22:04:45.207Z,5.45
2023-10-07T22:07:48.829Z,6.18
2023-10-07T22:10:50.576Z,4.75
2023-10-07T22:13:52.468Z,6.18
2023-10-07T22:16:57.557Z,4.75
2023-10-07T22:20:00.115Z,5.75
2023-10-07T22:23:02.672Z,6.22
2023-10-07T22:26:05.445Z,6.32
2023-10-07T22:29:07.644Z,5.05
2023-10-07T22:32:10.806Z,6.80
2023-10-07T22:35:16.411Z,5.05
2023-10-07T22:38:25.362Z,5.00
2023-10-07T22:41:27.128Z,5.80
2023-10-07T22:44:29.117Z,6.85
2023-10-07T22:47:32.365Z,7.32
2023-10-07T22:50:36.113Z,5.15
2023-10-07T22:53:38.185Z,5.55
2023-10-07T22:56:40.172Z,4.97
2023-10-07T22:59:44.515Z,4.78
2023-10-07T23:02:48.171Z,4.55
2023-10-07T23:05:52.470Z,4.90
2023-10-07T23:08:56.493Z,6.50
2023-10-07T23:11:58.452Z,6.32
2023-10-07T23:15:02.055Z,5.50
2023-10-07T23:18:05.817Z,6.88
2023-10-07T23:21:08.365Z,6.95
2023-10-07T23:24:14.311Z,5.80
2023-10-07T23:27:18.885Z,4.47
2023-10-07T23:30:21.497Z,7.22
2023-10-07T23:33:24.718Z,6.32
2023-10-07T23:36:28.568Z,5.80
2023-10-07T23:39:30.790Z,6.57
2023-10-07T23:42:33.219Z,5.80
2023-10-07T23:45:37.587Z,4.47
2023-10-07T23:48:40.928Z,5.68
2023-10-07T23:51:44.194Z,6.68
2023-10-07T23:54:45.878Z,6.40
2023-10-07T23:57:50.281Z,7.35
